CheckWX is a tool to help pilots better visualize weather data.  It is not intended as a substitute for an official pre-flight weather briefing.

05:22:28 UTC

KDHT METAR
Dalhart Municipal Airport
Dalhart, Texas, USA
Current

29 mins ago

KDHT 200453Z AUTO 18008KT 5SM BR CLR M09/M11 A2977 RMK AO2 SLP116 I1000 T10941111
Observed
Feb-20 @ 04:53 UTC
Wind
  • 180° at 8 KTS
Visibility
8,047 meters
Flight Rules
MVFR
Conditions
Mist
Cloud Levels
  • Clear skies
Temperature
-9°C / 16°F
Dewpoint
-11°C / 12°F
Humidity
86%
Altimeter
29.77" Hg
Pressure
1011.6 hPa
Previous

1 hour ago

KDHT 200353Z AUTO 19004KT 5SM BR CLR M11/M12 A2978 RMK AO2 SLP123 I1000 T11061122
Observed
Feb-20 @ 03:53 UTC
Wind
  • 190° at 4 KTS
Visibility
8,047 meters
Flight Rules
MVFR
Conditions
Mist
Cloud Levels
  • Clear skies
Temperature
-11°C / 12°F
Dewpoint
-12°C / 10°F
Humidity
92%
Altimeter
29.78" Hg
Pressure
1012.3 hPa
Previous

2 hours ago

KDHT 200253Z AUTO 18007KT 5SM BR FEW030 M09/M11 A2977 RMK AO2 SLP118 T10891106 58011
Observed
Feb-20 @ 02:53 UTC
Wind
  • 180° at 7 KTS
Visibility
8,047 meters
Flight Rules
MVFR
Conditions
Mist
Cloud Levels
  • Few at 3,000' AGL
Temperature
-9°C / 16°F
Dewpoint
-11°C / 12°F
Humidity
86%
Altimeter
29.77" Hg
Pressure
1011.8 hPa